createdAt,value
2022-12-19T00:01:26.563Z,34.43
2022-12-19T00:03:57.648Z,35.47
2022-12-19T00:06:28.940Z,33.90
2022-12-19T00:09:00.718Z,35.07
2022-12-19T00:11:31.011Z,33.63
2022-12-19T00:13:59.694Z,35.37
2022-12-19T00:16:30.964Z,34.43
2022-12-19T00:19:01.616Z,35.63
2022-12-19T00:21:34.759Z,35.20
2022-12-19T00:24:08.678Z,35.57
2022-12-19T00:26:49.649Z,35.80
2022-12-19T00:29:18.263Z,35.57
2022-12-19T00:31:47.002Z,37.33
2022-12-19T00:34:16.540Z,34.17
2022-12-19T00:36:46.410Z,36.30
2022-12-19T00:39:14.788Z,36.47
2022-12-19T00:41:43.448Z,36.13
2022-12-19T00:44:17.927Z,36.33
2022-12-19T00:46:52.727Z,36.53
2022-12-19T00:49:22.148Z,37.50
2022-12-19T00:51:52.154Z,36.67
2022-12-19T00:54:20.692Z,36.63
2022-12-19T00:56:49.324Z,36.27
2022-12-19T00:59:18.118Z,36.43
2022-12-19T01:01:55.443Z,37.57
2022-12-19T01:04:28.541Z,38.23
2022-12-19T01:07:01.838Z,38.43
2022-12-19T01:09:33.970Z,37.17
2022-12-19T01:12:20.546Z,37.50
2022-12-19T01:14:58.758Z,36.70
2022-12-19T01:17:43.643Z,37.20
2022-12-19T01:20:14.745Z,37.50
2022-12-19T01:22:44.726Z,38.83
2022-12-19T01:25:15.895Z,37.17
2022-12-19T01:27:44.380Z,37.73
2022-12-19T01:30:14.393Z,37.63
2022-12-19T01:32:44.192Z,36.83
2022-12-19T01:35:21.077Z,38.03
2022-12-19T01:37:51.684Z,37.77
2022-12-19T01:40:20.926Z,38.33
2022-12-19T01:42:50.303Z,36.40
2022-12-19T01:45:34.477Z,37.87
2022-12-19T01:48:18.244Z,37.37
2022-12-19T01:51:00.844Z,37.50
2022-12-19T01:53:46.955Z,38.50
2022-12-19T01:56:19.327Z,38.20
2022-12-19T01:58:49.385Z,35.13
2022-12-19T02:01:19.711Z,36.23
2022-12-19T02:03:49.879Z,37.07
2022-12-19T02:06:20.051Z,36.83
2022-12-19T02:08:50.729Z,37.27
2022-12-19T02:11:19.640Z,37.07
2022-12-19T02:13:49.159Z,37.10
2022-12-19T02:16:30.249Z,37.30
2022-12-19T02:19:09.965Z,36.83
2022-12-19T02:21:54.604Z,38.80
2022-12-19T02:25:01.854Z,35.83
2022-12-19T02:28:13.797Z,36.67
2022-12-19T02:30:55.124Z,37.53
2022-12-19T02:33:36.193Z,38.37
2022-12-19T02:36:09.550Z,37.67
2022-12-19T02:38:48.468Z,37.60
2022-12-19T02:41:23.249Z,35.73
2022-12-19T02:43:58.724Z,36.47
2022-12-19T02:46:32.310Z,35.63
2022-12-19T02:49:01.111Z,35.77
2022-12-19T02:51:29.452Z,35.93
2022-12-19T02:53:58.199Z,35.00
2022-12-19T02:56:41.575Z,37.70
2022-12-19T02:59:23.076Z,33.57
2022-12-19T03:01:59.258Z,36.70
2022-12-19T03:04:41.602Z,35.70
2022-12-19T03:07:19.901Z,34.70
2022-12-19T03:09:54.244Z,34.87
2022-12-19T03:12:27.931Z,34.27
2022-12-19T03:14:59.166Z,36.47
2022-12-19T03:17:30.154Z,35.53
2022-12-19T03:19:59.169Z,36.00
2022-12-19T03:22:28.221Z,35.90
2022-12-19T03:24:56.655Z,35.37
2022-12-19T03:27:31.050Z,35.60
2022-12-19T03:30:04.937Z,34.53
2022-12-19T03:32:37.729Z,35.93
2022-12-19T03:35:08.654Z,37.73
2022-12-19T03:37:41.016Z,35.27
2022-12-19T03:40:14.353Z,37.60
2022-12-19T03:43:02.638Z,35.23
2022-12-19T03:45:41.318Z,35.13
2022-12-19T03:48:17.436Z,35.13
2022-12-19T03:50:54.435Z,36.40
2022-12-19T03:53:37.868Z,35.93
2022-12-19T03:56:12.838Z,35.90
2022-12-19T03:58:46.908Z,35.30
2022-12-19T04:01:16.276Z,38.33
2022-12-19T04:03:46.668Z,37.30
2022-12-19T04:06:16.481Z,35.27
2022-12-19T04:08:46.096Z,38.33
2022-12-19T04:11:20.639Z,35.70
2022-12-19T04:13:53.561Z,37.00
2022-12-19T04:16:29.557Z,38.23
2022-12-19T04:19:04.717Z,37.40
2022-12-19T04:21:40.851Z,34.37
2022-12-19T04:24:13.956Z,36.37
2022-12-19T04:26:46.823Z,37.37
2022-12-19T04:29:17.588Z,37.50
2022-12-19T04:31:46.845Z,37.60
2022-12-19T04:34:21.243Z,37.93
2022-12-19T04:36:51.810Z,33.77
2022-12-19T04:39:20.936Z,37.57
2022-12-19T04:41:49.484Z,40.30
2022-12-19T04:44:17.984Z,40.30
2022-12-19T04:46:46.695Z,36.77
2022-12-19T04:49:16.768Z,35.73
2022-12-19T04:51:45.182Z,38.33
2022-12-19T04:54:13.674Z,35.77
2022-12-19T04:56:42.260Z,38.03
2022-12-19T04:59:11.390Z,38.33
2022-12-19T05:01:40.007Z,38.50
2022-12-19T05:04:08.659Z,38.57
2022-12-19T05:06:39.075Z,36.50
2022-12-19T05:09:07.603Z,37.30
2022-12-19T05:11:36.080Z,38.03
2022-12-19T05:14:05.139Z,39.33
2022-12-19T05:16:33.639Z,37.90
2022-12-19T05:19:02.311Z,36.40
2022-12-19T05:21:30.794Z,38.00
2022-12-19T05:24:01.140Z,38.50
2022-12-19T05:26:29.833Z,37.77
2022-12-19T05:28:58.459Z,37.20
2022-12-19T05:31:27.018Z,37.80
2022-12-19T05:33:55.503Z,38.37
2022-12-19T05:36:27.763Z,36.67
2022-12-19T05:39:02.539Z,38.70
2022-12-19T05:41:31.209Z,36.67
2022-12-19T05:43:59.797Z,36.50
2022-12-19T05:46:28.824Z,38.70
2022-12-19T05:48:57.683Z,38.90
2022-12-19T05:51:26.787Z,36.17
2022-12-19T05:53:55.444Z,38.07
2022-12-19T05:56:25.438Z,37.37
2022-12-19T05:58:54.659Z,36.00
2022-12-19T06:01:25.158Z,36.23
2022-12-19T06:03:54.807Z,38.00
2022-12-19T06:06:25.443Z,36.37
2022-12-19T06:08:55.837Z,35.27
2022-12-19T06:11:27.932Z,36.23
2022-12-19T06:13:57.002Z,36.87
2022-12-19T06:16:26.519Z,35.93
2022-12-19T06:18:55.656Z,34.57
2022-12-19T06:21:25.022Z,35.83
2022-12-19T06:23:54.332Z,34.20
2022-12-19T06:26:24.094Z,33.77
2022-12-19T06:28:54.643Z,35.57
2022-12-19T06:31:25.797Z,34.47
2022-12-19T06:33:56.904Z,33.63
2022-12-19T06:36:27.877Z,33.57
2022-12-19T06:38:59.008Z,33.97
2022-12-19T06:41:45.431Z,32.00
2022-12-19T06:44:17.700Z,32.30
2022-12-19T06:46:46.356Z,33.60
2022-12-19T06:49:15.170Z,33.23
2022-12-19T06:51:43.940Z,34.43
2022-12-19T06:54:12.987Z,32.67
2022-12-19T06:56:44.100Z,33.30
2022-12-19T06:59:16.816Z,30.57
2022-12-19T07:01:57.135Z,32.30
2022-12-19T07:04:30.088Z,30.90
2022-12-19T07:06:59.430Z,32.20
2022-12-19T07:09:29.219Z,30.37
2022-12-19T07:11:57.818Z,30.73
2022-12-19T07:14:29.095Z,29.73
2022-12-19T07:17:00.670Z,32.30
2022-12-19T07:19:30.542Z,33.80
2022-12-19T07:22:01.418Z,29.67
2022-12-19T07:24:31.343Z,28.23
2022-12-19T07:27:00.230Z,29.13
2022-12-19T07:29:30.460Z,32.43
2022-12-19T07:31:59.170Z,27.77
2022-12-19T07:34:27.918Z,27.93
2022-12-19T07:36:56.545Z,28.07
2022-12-19T07:39:25.465Z,29.43
2022-12-19T07:41:53.990Z,29.67
2022-12-19T07:44:33.737Z,29.23
2022-12-19T07:47:02.496Z,32.00
2022-12-19T07:49:31.590Z,26.77
2022-12-19T07:52:00.123Z,29.30
2022-12-19T07:54:28.753Z,27.60
2022-12-19T07:56:57.749Z,26.90
2022-12-19T07:59:31.300Z,27.00
2022-12-19T08:02:03.601Z,26.37
2022-12-19T08:04:32.216Z,30.77
2022-12-19T08:07:02.449Z,27.97
2022-12-19T08:09:32.377Z,26.00
2022-12-19T08:12:00.952Z,27.03
2022-12-19T08:14:29.618Z,25.70
2022-12-19T08:19:49.140Z,26.93
2022-12-19T08:22:17.768Z,24.97
2022-12-19T08:24:49.427Z,26.30
2022-12-19T08:27:18.945Z,27.90
2022-12-19T08:29:47.971Z,27.40
2022-12-19T08:32:21.214Z,24.80
2022-12-19T08:34:52.619Z,24.37
2022-12-19T08:37:22.319Z,23.93
2022-12-19T08:39:51.714Z,22.67
2022-12-19T08:42:21.169Z,23.03
2022-12-19T08:44:50.419Z,25.97
2022-12-19T08:47:19.401Z,25.20
2022-12-19T08:49:48.357Z,23.73
2022-12-19T08:52:21.960Z,29.37
2022-12-19T08:54:50.788Z,24.07
2022-12-19T08:57:19.675Z,21.77
2022-12-19T08:59:48.671Z,22.50
2022-12-19T09:02:18.670Z,23.30
2022-12-19T09:05:59.558Z,20.77
2022-12-19T09:07:39.964Z,19.57
2022-12-19T09:10:09.616Z,18.07
2022-12-19T09:12:38.569Z,17.07
2022-12-19T09:15:08.197Z,14.23
2022-12-19T09:17:37.354Z,15.33
2022-12-19T09:20:08.282Z,15.63
2022-12-19T09:22:38.645Z,15.17
2022-12-19T09:25:08.710Z,15.30
2022-12-19T09:28:17.408Z,15.07
2022-12-19T09:30:26.503Z,14.87
2022-12-19T09:32:56.409Z,16.03
2022-12-19T09:35:30.107Z,14.87
2022-12-19T09:38:00.886Z,14.80
2022-12-19T09:40:34.185Z,14.77
2022-12-19T09:43:11.867Z,14.00
2022-12-19T09:45:54.989Z,15.40
2022-12-19T09:48:26.094Z,13.27
2022-12-19T09:51:10.013Z,15.20
2022-12-19T09:54:00.205Z,15.13
2022-12-19T09:56:45.302Z,13.07
2022-12-19T09:59:31.736Z,13.93
2022-12-19T10:02:33.793Z,14.63
2022-12-19T10:05:27.724Z,14.23
2022-12-19T10:08:08.552Z,13.47
2022-12-19T10:12:42.886Z,13.23
2022-12-19T10:14:03.122Z,11.47
2022-12-19T10:16:56.343Z,11.90
2022-12-19T10:19:47.110Z,11.73
2022-12-19T10:22:29.698Z,11.83
2022-12-19T10:25:38.462Z,11.60
2022-12-19T10:28:26.170Z,10.67
2022-12-19T10:31:14.151Z,11.23
2022-12-19T10:33:55.171Z,10.97
2022-12-19T10:36:48.533Z,9.80
2022-12-19T10:39:25.240Z,10.93
2022-12-19T10:41:58.588Z,9.73
2022-12-19T10:44:32.209Z,8.77
2022-12-19T10:47:01.739Z,9.43
2022-12-19T10:49:33.773Z,8.77
2022-12-19T10:52:07.914Z,8.50
2022-12-19T10:54:43.296Z,8.80
2022-12-19T10:57:26.150Z,8.57
2022-12-19T11:00:04.399Z,8.07
2022-12-19T11:02:44.604Z,8.00
2022-12-19T11:05:27.046Z,8.57
2022-12-19T11:08:08.542Z,7.83
2022-12-19T11:11:24.722Z,7.33
2022-12-19T11:18:10.006Z,7.60
2022-12-19T11:22:51.730Z,6.87
2022-12-19T11:29:25.220Z,6.63
2022-12-19T11:30:06.369Z,6.97
2022-12-19T11:30:25.737Z,6.67
2022-12-19T11:30:38.060Z,6.43
2022-12-19T11:34:15.100Z,6.83
2022-12-19T11:36:51.172Z,6.40
2022-12-19T11:39:25.453Z,6.83
2022-12-19T11:42:03.448Z,6.37
2022-12-19T11:44:39.504Z,6.17
2022-12-19T11:47:19.103Z,6.67
2022-12-19T11:49:56.774Z,7.80
2022-12-19T11:55:34.835Z,5.50
2022-12-19T11:58:04.831Z,5.37
2022-12-19T12:00:35.928Z,5.13
2022-12-19T12:03:42.725Z,5.50
2022-12-19T12:06:36.023Z,4.80
2022-12-19T12:10:35.937Z,4.70
2022-12-19T12:20:31.252Z,5.50
2022-12-19T12:25:51.934Z,5.03
2022-12-19T12:31:06.984Z,5.17
2022-12-19T12:31:16.553Z,4.93
2022-12-19T12:31:53.065Z,5.03
2022-12-19T12:32:04.538Z,5.37
2022-12-19T12:32:05.066Z,4.90
2022-12-19T12:35:30.231Z,4.67
2022-12-19T12:39:59.092Z,4.37
2022-12-19T12:42:40.808Z,3.83
2022-12-19T12:45:21.858Z,4.27
2022-12-19T12:47:57.330Z,3.70
2022-12-19T12:50:27.771Z,4.17
2022-12-19T12:53:01.575Z,4.10
2022-12-19T12:55:34.575Z,3.50
2022-12-19T12:58:04.196Z,3.53
2022-12-19T13:00:36.531Z,2.80
2022-12-19T13:03:13.566Z,2.77
2022-12-19T13:06:05.675Z,3.20
2022-12-19T13:08:40.901Z,3.47
2022-12-19T13:11:36.236Z,3.00
2022-12-19T13:14:06.517Z,3.30
2022-12-19T13:16:54.036Z,3.33
2022-12-19T13:19:28.269Z,3.73
2022-12-19T13:22:19.788Z,4.00
2022-12-19T13:24:51.968Z,6.40
2022-12-19T13:27:40.701Z,8.17
2022-12-19T13:30:21.242Z,8.40
2022-12-19T13:33:11.491Z,9.40
2022-12-19T13:38:05.397Z,10.33
2022-12-19T13:39:47.983Z,11.83
2022-12-19T13:41:59.636Z,12.00
2022-12-19T13:44:29.256Z,12.63
2022-12-19T13:46:58.639Z,12.67
2022-12-19T13:49:34.203Z,13.10
2022-12-19T13:52:05.967Z,12.50
2022-12-19T13:54:39.254Z,11.40
2022-12-19T13:57:23.179Z,12.33
2022-12-19T14:00:00.009Z,12.63
2022-12-19T14:02:44.717Z,11.37
2022-12-19T14:05:49.399Z,12.37
2022-12-19T14:08:23.033Z,11.20
2022-12-19T14:11:41.533Z,10.97
2022-12-19T14:14:16.389Z,10.43
2022-12-19T14:16:49.437Z,10.40
2022-12-19T14:19:21.526Z,9.47
2022-12-19T14:22:11.323Z,9.60
2022-12-19T14:24:41.354Z,10.10
2022-12-19T14:28:16.909Z,10.73
2022-12-19T14:30:28.325Z,10.67
2022-12-19T14:33:46.785Z,12.33
2022-12-19T14:36:05.844Z,11.93
2022-12-19T14:39:23.670Z,11.80
2022-12-19T14:42:00.921Z,12.23
2022-12-19T14:54:05.222Z,12.40
2022-12-19T14:54:10.032Z,11.70
2022-12-19T14:54:15.725Z,12.17
2022-12-19T14:54:26.804Z,12.50
2022-12-19T14:59:04.561Z,12.57
2022-12-19T15:01:36.855Z,13.17
2022-12-19T15:04:47.856Z,12.97
2022-12-19T15:07:11.775Z,12.23
2022-12-19T15:11:08.134Z,11.50
2022-12-19T15:14:49.426Z,12.17
2022-12-19T15:16:07.947Z,11.47
2022-12-19T15:18:43.275Z,11.13
2022-12-19T15:21:15.107Z,11.70
2022-12-19T15:23:46.070Z,11.13
2022-12-19T15:26:17.350Z,10.60
2022-12-19T15:28:51.096Z,11.33
2022-12-19T15:31:30.310Z,11.17
2022-12-19T15:34:32.914Z,9.57
2022-12-19T15:36:51.444Z,10.50
2022-12-19T15:39:22.779Z,10.67
2022-12-19T15:41:55.013Z,10.10
2022-12-19T15:44:27.849Z,10.73
2022-12-19T15:46:56.833Z,9.87
2022-12-19T15:49:25.584Z,10.40
2022-12-19T15:51:55.823Z,10.23
2022-12-19T15:57:24.248Z,9.90
2022-12-19T15:59:53.668Z,11.70
2022-12-19T16:02:27.968Z,10.27
2022-12-19T16:05:06.972Z,9.53
2022-12-19T16:07:37.678Z,10.07
2022-12-19T16:10:07.879Z,9.50
2022-12-19T16:12:40.551Z,9.83
2022-12-19T16:15:16.044Z,9.93
2022-12-19T16:17:45.172Z,9.33
2022-12-19T16:20:20.285Z,9.90
2022-12-19T16:22:50.327Z,9.90
2022-12-19T16:25:19.563Z,11.40
2022-12-19T16:27:55.944Z,11.37
2022-12-19T16:30:29.270Z,9.20
2022-12-19T16:32:59.535Z,10.83
2022-12-19T16:36:02.570Z,10.00
2022-12-19T16:38:21.864Z,10.03
2022-12-19T16:40:54.930Z,10.80
2022-12-19T16:43:30.428Z,9.33
2022-12-19T16:46:01.513Z,10.03
2022-12-19T16:48:31.622Z,10.27
2022-12-19T16:51:01.484Z,9.07
2022-12-19T16:53:31.840Z,8.03
2022-12-19T16:56:01.709Z,7.63
2022-12-19T16:58:31.088Z,7.20
2022-12-19T17:00:59.942Z,6.50
2022-12-19T17:03:34.344Z,5.90
2022-12-19T17:06:03.448Z,5.23
2022-12-19T17:08:33.924Z,4.50
2022-12-19T17:11:02.727Z,4.93
2022-12-19T17:13:31.214Z,4.63
2022-12-19T17:16:00.119Z,4.53
2022-12-19T17:18:31.485Z,3.80
2022-12-19T17:21:00.447Z,3.83
2022-12-19T17:23:32.811Z,3.63
2022-12-19T17:26:04.073Z,3.63
2022-12-19T17:28:32.945Z,3.37
2022-12-19T17:31:05.185Z,3.37
2022-12-19T17:33:36.983Z,3.40
2022-12-19T17:36:07.977Z,3.20
2022-12-19T17:38:37.389Z,3.13
2022-12-19T17:41:07.399Z,3.37
2022-12-19T17:43:35.880Z,3.83
2022-12-19T17:46:05.063Z,3.03
2022-12-19T17:48:34.557Z,2.90
2022-12-19T17:51:03.028Z,3.23
2022-12-19T17:53:31.703Z,3.70
2022-12-19T17:56:00.260Z,3.37
2022-12-19T17:58:30.358Z,3.00
2022-12-19T18:00:59.076Z,2.70
2022-12-19T18:03:28.257Z,3.03
2022-12-19T18:05:57.535Z,3.43
2022-12-19T18:08:28.695Z,2.90
2022-12-19T18:10:58.866Z,3.47
2022-12-19T18:13:30.540Z,2.87
2022-12-19T18:16:01.759Z,3.53
2022-12-19T18:18:32.752Z,3.03
2022-12-19T18:21:02.699Z,2.80
2022-12-19T18:23:31.842Z,3.07
2022-12-19T18:26:02.173Z,2.93
2022-12-19T18:28:32.893Z,2.50
2022-12-19T18:31:04.238Z,2.63
2022-12-19T18:33:38.173Z,2.73
2022-12-19T18:36:08.651Z,2.67
2022-12-19T18:38:37.129Z,2.73
2022-12-19T18:41:06.103Z,3.17
2022-12-19T18:43:36.061Z,3.07
2022-12-19T18:46:04.737Z,2.80
2022-12-19T18:48:36.430Z,2.83
2022-12-19T18:51:06.643Z,2.53
2022-12-19T18:53:36.323Z,2.60
2022-12-19T18:56:06.242Z,2.80
2022-12-19T18:58:36.675Z,2.30
2022-12-19T19:01:07.387Z,2.13
2022-12-19T19:03:38.595Z,2.47
2022-12-19T19:06:15.440Z,2.97
2022-12-19T19:08:44.143Z,2.20
2022-12-19T19:11:46.145Z,2.13
2022-12-19T19:14:16.166Z,2.50
2022-12-19T19:16:45.040Z,2.27
2022-12-19T19:19:18.587Z,2.63
2022-12-19T19:21:47.196Z,2.47
2022-12-19T19:24:18.677Z,2.20
2022-12-19T19:26:50.749Z,2.60
2022-12-19T19:29:20.578Z,2.97
2022-12-19T19:31:51.815Z,2.30
2022-12-19T19:34:25.235Z,2.00
2022-12-19T19:36:56.372Z,2.40
2022-12-19T19:39:27.664Z,2.13
2022-12-19T19:41:56.982Z,2.20
2022-12-19T19:44:26.848Z,4.10
2022-12-19T19:46:55.391Z,2.33
2022-12-19T19:49:24.536Z,2.93
2022-12-19T19:51:56.983Z,6.97
2022-12-19T19:54:30.887Z,2.83
2022-12-19T19:56:59.560Z,2.30
2022-12-19T19:59:32.173Z,3.70
2022-12-19T20:02:00.835Z,3.00
2022-12-19T20:04:29.864Z,2.60
2022-12-19T20:06:58.461Z,5.67
2022-12-19T20:09:27.110Z,4.90
2022-12-19T20:11:55.985Z,4.27
2022-12-19T20:14:26.719Z,2.50
2022-12-19T20:16:56.634Z,2.30
2022-12-19T20:19:25.423Z,2.10
2022-12-19T20:21:54.065Z,3.67
2022-12-19T20:24:22.995Z,3.53
2022-12-19T20:26:51.505Z,3.37
2022-12-19T20:29:20.709Z,2.73
2022-12-19T20:31:49.491Z,2.97
2022-12-19T20:34:20.184Z,1.63
2022-12-19T20:36:48.982Z,2.70
2022-12-19T20:39:22.128Z,2.70
2022-12-19T20:41:51.405Z,3.00
2022-12-19T20:44:24.493Z,2.60
2022-12-19T20:46:54.031Z,2.60
2022-12-19T20:49:25.267Z,2.57
2022-12-19T20:51:53.924Z,2.53
2022-12-19T20:54:23.675Z,2.17
2022-12-19T20:56:52.269Z,3.00
2022-12-19T20:59:20.992Z,2.23
2022-12-19T21:01:49.883Z,1.90
2022-12-19T21:04:18.600Z,2.20
2022-12-19T21:06:48.819Z,2.30
2022-12-19T21:09:17.258Z,2.10
2022-12-19T21:11:45.863Z,1.90
2022-12-19T21:14:14.382Z,2.50
2022-12-19T21:16:43.119Z,2.50
2022-12-19T21:19:11.886Z,2.27
2022-12-19T21:21:40.920Z,2.30
2022-12-19T21:24:10.924Z,2.33
2022-12-19T21:26:39.865Z,2.27
2022-12-19T21:29:08.408Z,1.97
2022-12-19T21:31:37.450Z,2.17
2022-12-19T21:34:06.551Z,2.47
2022-12-19T21:36:35.320Z,2.40
2022-12-19T21:39:04.571Z,2.10
2022-12-19T21:41:34.720Z,2.20
2022-12-19T21:44:03.359Z,2.03
2022-12-19T21:46:34.151Z,2.70
2022-12-19T21:49:04.383Z,2.30
2022-12-19T21:51:33.980Z,2.20
2022-12-19T21:54:05.132Z,2.67
2022-12-19T21:56:37.250Z,3.00
2022-12-19T21:59:09.414Z,2.10
2022-12-19T22:01:38.406Z,2.70
2022-12-19T22:04:08.963Z,2.50
2022-12-19T22:06:39.607Z,2.37
2022-12-19T22:09:10.171Z,2.60
2022-12-19T22:11:40.531Z,1.83
2022-12-19T22:14:09.487Z,2.23
2022-12-19T22:16:38.387Z,2.03
2022-12-19T22:19:08.138Z,2.10
2022-12-19T22:21:37.167Z,2.10
2022-12-19T22:24:06.162Z,2.03
2022-12-19T22:26:35.674Z,2.63
2022-12-19T22:29:08.945Z,2.37
2022-12-19T22:31:38.717Z,2.40
2022-12-19T22:34:08.992Z,2.47
2022-12-19T22:36:39.402Z,2.00
2022-12-19T22:39:10.246Z,2.63
2022-12-19T22:41:40.402Z,1.90
2022-12-19T22:44:16.258Z,1.97
2022-12-19T22:46:44.921Z,2.30
2022-12-19T22:49:14.522Z,2.10
2022-12-19T22:52:00.589Z,1.97
2022-12-19T22:54:29.173Z,1.77
2022-12-19T22:56:57.808Z,2.17
2022-12-19T22:59:26.400Z,2.20
2022-12-19T23:01:56.098Z,1.73
2022-12-19T23:04:25.478Z,2.20
2022-12-19T23:06:53.979Z,1.80
2022-12-19T23:09:24.212Z,1.73
2022-12-19T23:11:52.697Z,1.87
2022-12-19T23:14:21.403Z,1.90
2022-12-19T23:16:50.820Z,1.50
2022-12-19T23:19:19.908Z,2.30
2022-12-19T23:21:48.619Z,1.83
2022-12-19T23:24:17.076Z,1.90
2022-12-19T23:26:46.888Z,1.57
2022-12-19T23:29:16.426Z,1.93
2022-12-19T23:31:46.913Z,1.70
2022-12-19T23:34:16.237Z,1.47
2022-12-19T23:39:33.243Z,1.90
2022-12-19T23:42:03.106Z,1.70
2022-12-19T23:44:31.768Z,1.90
2022-12-19T23:47:03.440Z,1.80
2022-12-19T23:49:32.576Z,1.87
2022-12-19T23:52:01.022Z,1.70
2022-12-19T23:54:29.690Z,1.60
2022-12-19T23:56:58.095Z,1.60
2022-12-19T23:59:28.118Z,1.90
